Nearby METAR Reports

KLNK - Lincoln, Nebraska, USA
Distance from station: WNW 8mi, 13km
Updated: Mon, 18-Jan-2021 4:54pm CST
Clear
Clear
 Wind from N
Wind: N 3 mph , 6 km/h
Temperature: 37°F , 3°C
Dew Point: 28°F , -2°C
Humidity: 70%
Barometer: 30.05 inHg , 1017.6 hPa
Clouds: Clear
Visibility: 10 miles , 16 km
2021/01/18 22:54 KLNK 182254Z 36003KT 10SM CLR 03/M02 A3005 RMK AO2 SLP186 T00331022
KAHQ - Wahoo, Nebraska, USA
Distance from station: N 31mi, 49km
Updated: Mon, 18-Jan-2021 4:55pm CST
Overcast
Overcast
 Wind from calm
Wind: Calm
Temperature: 37°F , 3°C
Dew Point: 30°F , -1°C
Humidity: 75%
Barometer: 30.04 inHg , 1017.3 hPa
Clouds: Overcast
Visibility: 10 miles , 16 km
Cloud details: Overcast 1800 ft
2021/01/18 22:55 KAHQ 182255Z AUTO 00000KT 10SM OVC018 03/M01 A3004 RMK AO2 T00251010
 
KBIE - Beatrice Municip, Nebraska, USA
Distance from station: S 36mi, 57km
Updated: Mon, 18-Jan-2021 4:55pm CST
Overcast
Overcast
 Wind from NNE
Wind: NNE 7 mph , 11 km/h
Temperature: 39°F , 4°C
Wind Chill: 34°F , 1°C
Dew Point: 30°F , -1°C
Humidity: 70%
Barometer: 30.03 inHg , 1016.9 hPa
Clouds: Overcast
Visibility: 10 miles , 16 km
Cloud details: Mostly Cloudy 4800 ft
Overcast 5000 ft
2021/01/18 22:55 KBIE 182255Z AUTO 02006KT 10SM BKN048 OVC050 04/M01 A3003 RMK AO2 T00371007
KMLE - Omaha/Millard, Nebraska, USA
Distance from station: NE 39mi, 63km
Updated: Mon, 18-Jan-2021 4:55pm CST
Partly Cloudy
Partly Cloudy
 Wind from calm
Wind: Calm
Temperature: 37°F , 3°C
Dew Point: 27°F , -3°C
Humidity: 65%
Barometer: 30.04 inHg , 1017.3 hPa
Clouds: Partly Cloudy
Visibility: 10 miles , 16 km
Cloud details: Partly Cloudy 2600 ft
2021/01/18 22:55 KMLE 182255Z AUTO 00000KT 10SM SCT026 03/M03 A3004 RMK AO2 T00301033
 
KPMV - Plattsmouth Muni, Nebraska, USA
Distance from station: ENE 39mi, 63km
Updated: Mon, 18-Jan-2021 4:55pm CST
Clear
Clear
 Wind from calm
Wind: Calm
Temperature: 36°F , 2°C
Dew Point: 27°F , -3°C
Humidity: 70%
Barometer: 30.04 inHg , 1017.3 hPa
Clouds: Clear
Visibility: 10 miles , 16 km
2021/01/18 22:55 KPMV 182255Z AUTO 00000KT 10SM CLR 02/M03 A3004 RMK AO2 T00171028
KAFK - Nebraska City, Nebraska, USA
Distance from station: ESE 43mi, 69km
Updated: Mon, 18-Jan-2021 4:55pm CST
Clear
Clear
 Wind from N
Wind: N 6 mph , 9 km/h
Temperature: 32°F , 0°C
Wind Chill: 26°F , -3°C
Dew Point: 30°F , -1°C
Humidity: 93%
Barometer: 30.03 inHg , 1016.9 hPa
Clouds: Clear
Visibility: 10 miles , 16 km
2021/01/18 22:55 KAFK 182255Z AUTO 36005KT 10SM CLR 00/M01 A3003 RMK AO2 T00011006
 
KOFF - Offutt Afb/Belle, Nebraska, USA
Distance from station: ENE 44mi, 70km
Updated: Mon, 18-Jan-2021 4:56pm CST
Clear
Clear
 Wind from calm
Wind: Calm
Temperature: 36°F , 2°C
Dew Point: 25°F , -4°C
Humidity: 65%
Barometer: 30.04 inHg , 1017.3 hPa
Clouds: Clear
Visibility: 10 miles , 16 km
2021/01/18 22:56 KOFF 182256Z AUTO 00000KT 10SM CLR 02/M04 A3004 RMK AO2 SLP189 T00151036 $
KFET - Fremont Muni Arp, Nebraska, USA
Distance from station: N 46mi, 74km
Updated: Mon, 18-Jan-2021 4:55pm CST
Mostly Cloudy
Mostly Cloudy
 Wind from calm
Wind: Calm
Temperature: 36°F , 2°C
Dew Point: 30°F , -1°C
Humidity: 81%
Barometer: 30.03 inHg , 1016.9 hPa
Clouds: Mostly Cloudy
Visibility: 10 miles , 16 km
Cloud details: Mostly Cloudy 2200 ft
Mostly Cloudy 3700 ft
Mostly Cloudy 4500 ft
2021/01/18 22:55 KFET 182255Z AUTO 00000KT 10SM BKN022 BKN037 BKN045 02/M01 A3003 RMK AO2 T00221015
 
KBTA - Blair Muni, Nebraska, USA
Distance from station: NNE 51mi, 82km
Updated: Mon, 18-Jan-2021 4:55pm CST
Overcast
Overcast
 Wind from calm
Wind: Calm
Temperature: 36°F , 2°C
Dew Point: 27°F , -3°C
Humidity: 70%
Barometer: 30.03 inHg , 1016.9 hPa
Clouds: Overcast
Visibility: 10 miles , 16 km
Cloud details: Overcast 2400 ft
2021/01/18 22:55 KBTA 182255Z AUTO 00000KT 10SM OVC024 02/M03 A3003 RMK AO2 T00151031
KJYR - York, Nebraska, USA
Distance from station: W 52mi, 84km
Updated: Mon, 18-Jan-2021 4:55pm CST
Clear
Clear
 Wind from calm
Wind: Calm
Temperature: 37°F , 3°C
Dew Point: 28°F , -2°C
Humidity: 70%
Barometer: 30.02 inHg , 1016.6 hPa
Clouds: Clear
Visibility: 10 miles , 16 km
2021/01/18 22:55 KJYR 182255Z AUTO 00000KT 10SM CLR 03/M02 A3002 RMK AO2
 
KOMA - Omaha/Eppley, Nebraska, USA
Distance from station: NE 53mi, 85km
Updated: Mon, 18-Jan-2021 4:52pm CST
Partly Cloudy
Partly Cloudy
 Wind from N
Wind: N 5 mph , 7 km/h
Temperature: 36°F , 2°C
Wind Chill: 32°F , 0°C
Dew Point: 27°F , -3°C
Humidity: 70%
Barometer: 30.04 inHg , 1017.3 hPa
Clouds: Partly Cloudy
Visibility: 10 miles , 16 km
Cloud details: Few Clouds 1500 ft
Few Clouds 8000 ft
Partly Cloudy 20000 ft
2021/01/18 22:52 KOMA 182252Z 35004KT 10SM FEW015 FEW080 SCT200 02/M03 A3004 RMK AO2 SLP183 T00171033
KOLU - Columbus Muni, Nebraska, USA
Distance from station: NW 58mi, 93km
Updated: Mon, 18-Jan-2021 5:04pm CST
Partly Cloudy
Partly Cloudy
 Wind from calm
Wind: Calm
Temperature: 36°F , 2°C
Dew Point: 28°F , -2°C
Humidity: 75%
Barometer: 30.02 inHg , 1016.6 hPa
Clouds: Partly Cloudy
Visibility: 10 miles , 16 km
Cloud details: Partly Cloudy 2100 ft
2021/01/18 23:04 KOLU 182304Z AUTO 00000KT 10SM SCT021 02/M02 A3002 RMK AO2 FZRANO